sensor_id;sensor_type;location;lat;lon;timestamp;P1;durP1;ratioP1;P2;durP2;ratioP2
2756;SDS011;1386;50.862;6.494;2024-01-15T00:00:12;30.92;;;16.83;;
2756;SDS011;1386;50.862;6.494;2024-01-15T00:02:40;25.95;;;16.38;;
2756;SDS011;1386;50.862;6.494;2024-01-15T00:05:07;29.50;;;16.15;;
2756;SDS011;1386;50.862;6.494;2024-01-15T00:07:35;27.88;;;15.32;;
2756;SDS011;1386;50.862;6.494;2024-01-15T00:10:02;27.55;;;16.38;;
2756;SDS011;1386;50.862;6.494;2024-01-15T00:12:29;28.60;;;15.52;;
2756;SDS011;1386;50.862;6.494;2024-01-15T00:14:57;31.08;;;16.02;;
2756;SDS011;1386;50.862;6.494;2024-01-15T00:17:24;30.50;;;16.50;;
2756;SDS011;1386;50.862;6.494;2024-01-15T00:19:54;27.15;;;15.63;;
2756;SDS011;1386;50.862;6.494;2024-01-15T00:22:23;35.00;;;16.55;;
2756;SDS011;1386;50.862;6.494;2024-01-15T00:24:51;30.52;;;16.35;;
2756;SDS011;1386;50.862;6.494;2024-01-15T00:27:18;30.85;;;16.63;;
2756;SDS011;1386;50.862;6.494;2024-01-15T00:29:48;27.75;;;16.35;;
2756;SDS011;1386;50.862;6.494;2024-01-15T00:32:17;35.88;;;17.25;;
2756;SDS011;1386;50.862;6.494;2024-01-15T00:34:44;36.08;;;17.77;;
2756;SDS011;1386;50.862;6.494;2024-01-15T00:37:11;31.48;;;17.67;;
2756;SDS011;1386;50.862;6.494;2024-01-15T00:39:38;28.15;;;15.13;;
2756;SDS011;1386;50.862;6.494;2024-01-15T00:42:05;32.75;;;16.85;;
2756;SDS011;1386;50.862;6.494;2024-01-15T00:44:32;39.15;;;17.40;;
2756;SDS011;1386;50.862;6.494;2024-01-15T00:46:59;25.30;;;16.05;;
2756;SDS011;1386;50.862;6.494;2024-01-15T00:49:28;28.00;;;16.02;;
2756;SDS011;1386;50.862;6.494;2024-01-15T00:51:55;34.70;;;16.08;;
2756;SDS011;1386;50.862;6.494;2024-01-15T00:54:22;33.00;;;17.40;;
2756;SDS011;1386;50.862;6.494;2024-01-15T00:56:48;31.92;;;18.02;;
2756;SDS011;1386;50.862;6.494;2024-01-15T00:59:15;24.52;;;16.05;;
2756;SDS011;1386;50.862;6.494;2024-01-15T01:01:42;31.90;;;17.30;;
2756;SDS011;1386;50.862;6.494;2024-01-15T01:04:11;28.42;;;16.25;;
2756;SDS011;1386;50.862;6.494;2024-01-15T01:06:39;31.83;;;16.70;;
2756;SDS011;1386;50.862;6.494;2024-01-15T01:09:06;34.97;;;17.48;;
2756;SDS011;1386;50.862;6.494;2024-01-15T01:11:33;33.75;;;17.77;;
2756;SDS011;1386;50.862;6.494;2024-01-15T01:14:00;29.38;;;16.88;;
2756;SDS011;1386;50.862;6.494;2024-01-15T01:16:27;27.98;;;16.50;;
2756;SDS011;1386;50.862;6.494;2024-01-15T01:18:53;31.70;;;17.75;;
2756;SDS011;1386;50.862;6.494;2024-01-15T01:21:20;32.35;;;16.15;;
2756;SDS011;1386;50.862;6.494;2024-01-15T01:23:49;31.48;;;16.75;;
2756;SDS011;1386;50.862;6.494;2024-01-15T01:26:19;35.38;;;17.50;;
2756;SDS011;1386;50.862;6.494;2024-01-15T01:28:45;37.25;;;17.13;;
2756;SDS011;1386;50.862;6.494;2024-01-15T01:31:12;34.67;;;17.80;;
2756;SDS011;1386;50.862;6.494;2024-01-15T01:33:41;23.98;;;16.67;;
2756;SDS011;1386;50.862;6.494;2024-01-15T01:36:08;31.50;;;17.48;;
2756;SDS011;1386;50.862;6.494;2024-01-15T01:38:35;32.33;;;16.27;;
2756;SDS011;1386;50.862;6.494;2024-01-15T01:41:04;28.30;;;16.95;;
2756;SDS011;1386;50.862;6.494;2024-01-15T01:43:31;26.02;;;16.48;;
2756;SDS011;1386;50.862;6.494;2024-01-15T01:45:58;32.70;;;17.65;;
2756;SDS011;1386;50.862;6.494;2024-01-15T01:48:28;26.52;;;17.42;;
2756;SDS011;1386;50.862;6.494;2024-01-15T01:50:57;29.98;;;17.92;;
2756;SDS011;1386;50.862;6.494;2024-01-15T01:53:26;30.73;;;17.55;;
2756;SDS011;1386;50.862;6.494;2024-01-15T01:55:54;33.20;;;17.23;;
2756;SDS011;1386;50.862;6.494;2024-01-15T01:58:24;29.40;;;16.60;;
2756;SDS011;1386;50.862;6.494;2024-01-15T02:00:52;29.00;;;16.92;;
2756;SDS011;1386;50.862;6.494;2024-01-15T02:03:19;30.05;;;18.60;;
2756;SDS011;1386;50.862;6.494;2024-01-15T02:05:47;33.47;;;18.42;;
2756;SDS011;1386;50.862;6.494;2024-01-15T02:08:15;34.55;;;17.92;;
2756;SDS011;1386;50.862;6.494;2024-01-15T02:10:42;35.83;;;19.23;;
2756;SDS011;1386;50.862;6.494;2024-01-15T02:13:09;32.13;;;18.35;;
2756;SDS011;1386;50.862;6.494;2024-01-15T02:15:37;28.38;;;16.13;;
2756;SDS011;1386;50.862;6.494;2024-01-15T02:18:04;30.67;;;18.40;;
2756;SDS011;1386;50.862;6.494;2024-01-15T02:20:33;34.65;;;17.02;;
2756;SDS011;1386;50.862;6.494;2024-01-15T02:23:03;34.60;;;18.83;;
2756;SDS011;1386;50.862;6.494;2024-01-15T02:25:35;35.50;;;18.00;;
2756;SDS011;1386;50.862;6.494;2024-01-15T02:28:02;28.42;;;16.63;;
2756;SDS011;1386;50.862;6.494;2024-01-15T02:30:30;24.55;;;16.50;;
2756;SDS011;1386;50.862;6.494;2024-01-15T02:32:58;29.17;;;17.65;;
2756;SDS011;1386;50.862;6.494;2024-01-15T02:35:25;33.08;;;18.58;;
2756;SDS011;1386;50.862;6.494;2024-01-15T02:37:52;31.08;;;17.15;;
2756;SDS011;1386;50.862;6.494;2024-01-15T02:40:20;26.55;;;17.60;;
2756;SDS011;1386;50.862;6.494;2024-01-15T02:42:47;34.67;;;18.45;;
2756;SDS011;1386;50.862;6.494;2024-01-15T02:45:13;30.92;;;18.15;;
2756;SDS011;1386;50.862;6.494;2024-01-15T02:47:40;27.73;;;17.95;;
2756;SDS011;1386;50.862;6.494;2024-01-15T02:50:07;28.50;;;17.30;;
2756;SDS011;1386;50.862;6.494;2024-01-15T02:52:34;27.92;;;18.65;;
2756;SDS011;1386;50.862;6.494;2024-01-15T02:55:01;35.05;;;18.05;;
2756;SDS011;1386;50.862;6.494;2024-01-15T02:57:30;27.00;;;17.77;;
2756;SDS011;1386;50.862;6.494;2024-01-15T02:59:56;30.48;;;19.95;;
2756;SDS011;1386;50.862;6.494;2024-01-15T03:02:23;27.48;;;17.95;;
2756;SDS011;1386;50.862;6.494;2024-01-15T03:04:50;31.35;;;18.60;;
2756;SDS011;1386;50.862;6.494;2024-01-15T03:07:17;28.95;;;19.10;;
2756;SDS011;1386;50.862;6.494;2024-01-15T03:09:44;31.60;;;19.85;;
2756;SDS011;1386;50.862;6.494;2024-01-15T03:12:11;30.65;;;17.73;;
2756;SDS011;1386;50.862;6.494;2024-01-15T03:14:39;33.58;;;20.52;;
2756;SDS011;1386;50.862;6.494;2024-01-15T03:17:06;35.92;;;20.83;;
2756;SDS011;1386;50.862;6.494;2024-01-15T03:19:34;31.85;;;19.13;;
2756;SDS011;1386;50.862;6.494;2024-01-15T03:22:01;34.78;;;19.38;;
2756;SDS011;1386;50.862;6.494;2024-01-15T03:24:28;33.35;;;19.10;;
2756;SDS011;1386;50.862;6.494;2024-01-15T03:26:55;29.05;;;18.88;;
2756;SDS011;1386;50.862;6.494;2024-01-15T03:29:22;26.52;;;17.73;;
2756;SDS011;1386;50.862;6.494;2024-01-15T03:31:51;30.63;;;20.50;;
2756;SDS011;1386;50.862;6.494;2024-01-15T03:34:17;32.17;;;19.40;;
2756;SDS011;1386;50.862;6.494;2024-01-15T03:36:44;29.75;;;19.95;;
2756;SDS011;1386;50.862;6.494;2024-01-15T03:39:11;31.92;;;17.85;;
2756;SDS011;1386;50.862;6.494;2024-01-15T03:41:38;30.98;;;17.80;;
2756;SDS011;1386;50.862;6.494;2024-01-15T03:44:05;28.63;;;17.23;;
2756;SDS011;1386;50.862;6.494;2024-01-15T03:46:32;36.15;;;17.60;;
2756;SDS011;1386;50.862;6.494;2024-01-15T03:49:00;27.65;;;18.00;;
2756;SDS011;1386;50.862;6.494;2024-01-15T03:51:27;24.15;;;16.65;;
2756;SDS011;1386;50.862;6.494;2024-01-15T03:53:54;28.15;;;16.92;;
2756;SDS011;1386;50.862;6.494;2024-01-15T03:56:20;27.42;;;15.10;;
2756;SDS011;1386;50.862;6.494;2024-01-15T03:58:47;29.88;;;15.73;;
2756;SDS011;1386;50.862;6.494;2024-01-15T04:01:14;25.98;;;16.52;;
2756;SDS011;1386;50.862;6.494;2024-01-15T04:03:41;26.75;;;15.32;;
2756;SDS011;1386;50.862;6.494;2024-01-15T04:06:09;21.52;;;14.30;;
2756;SDS011;1386;50.862;6.494;2024-01-15T04:08:39;22.15;;;13.43;;
2756;SDS011;1386;50.862;6.494;2024-01-15T04:11:06;19.73;;;13.65;;
2756;SDS011;1386;50.862;6.494;2024-01-15T04:13:32;25.35;;;16.40;;
2756;SDS011;1386;50.862;6.494;2024-01-15T04:15:59;20.08;;;14.30;;
2756;SDS011;1386;50.862;6.494;2024-01-15T04:18:26;24.27;;;14.80;;
2756;SDS011;1386;50.862;6.494;2024-01-15T04:20:53;21.95;;;14.15;;
2756;SDS011;1386;50.862;6.494;2024-01-15T04:23:22;24.92;;;15.25;;
2756;SDS011;1386;50.862;6.494;2024-01-15T04:25:48;23.38;;;15.65;;
2756;SDS011;1386;50.862;6.494;2024-01-15T04:28:15;25.38;;;13.70;;
2756;SDS011;1386;50.862;6.494;2024-01-15T04:30:42;20.00;;;14.90;;
2756;SDS011;1386;50.862;6.494;2024-01-15T04:33:09;23.17;;;13.00;;
2756;SDS011;1386;50.862;6.494;2024-01-15T04:35:36;29.90;;;15.45;;
2756;SDS011;1386;50.862;6.494;2024-01-15T04:38:03;19.83;;;14.18;;
2756;SDS011;1386;50.862;6.494;2024-01-15T04:40:31;24.13;;;14.20;;
2756;SDS011;1386;50.862;6.494;2024-01-15T04:42:58;24.95;;;15.32;;
2756;SDS011;1386;50.862;6.494;2024-01-15T04:45:25;30.42;;;15.85;;
2756;SDS011;1386;50.862;6.494;2024-01-15T04:47:53;33.33;;;15.38;;
2756;SDS011;1386;50.862;6.494;2024-01-15T04:50:21;22.15;;;13.93;;
2756;SDS011;1386;50.862;6.494;2024-01-15T04:52:49;18.48;;;13.27;;
2756;SDS011;1386;50.862;6.494;2024-01-15T04:55:16;20.25;;;12.48;;
2756;SDS011;1386;50.862;6.494;2024-01-15T04:57:44;21.08;;;13.50;;
2756;SDS011;1386;50.862;6.494;2024-01-15T05:00:11;20.70;;;13.02;;
2756;SDS011;1386;50.862;6.494;2024-01-15T05:02:39;17.75;;;12.30;;
2756;SDS011;1386;50.862;6.494;2024-01-15T05:05:06;17.20;;;12.18;;
2756;SDS011;1386;50.862;6.494;2024-01-15T05:07:33;22.35;;;13.43;;
2756;SDS011;1386;50.862;6.494;2024-01-15T05:10:00;15.65;;;12.23;;
2756;SDS011;1386;50.862;6.494;2024-01-15T05:12:27;17.67;;;11.82;;
2756;SDS011;1386;50.862;6.494;2024-01-15T05:14:55;17.42;;;11.55;;
2756;SDS011;1386;50.862;6.494;2024-01-15T05:17:22;14.65;;;11.02;;
2756;SDS011;1386;50.862;6.494;2024-01-15T05:19:49;17.98;;;12.60;;
2756;SDS011;1386;50.862;6.494;2024-01-15T05:22:16;20.85;;;13.80;;
2756;SDS011;1386;50.862;6.494;2024-01-15T05:24:42;20.40;;;14.00;;
2756;SDS011;1386;50.862;6.494;2024-01-15T05:27:09;20.45;;;13.63;;
2756;SDS011;1386;50.862;6.494;2024-01-15T05:29:36;20.25;;;14.02;;
2756;SDS011;1386;50.862;6.494;2024-01-15T05:32:05;19.27;;;13.68;;
2756;SDS011;1386;50.862;6.494;2024-01-15T05:34:31;20.60;;;14.50;;
2756;SDS011;1386;50.862;6.494;2024-01-15T05:36:58;23.13;;;15.10;;
2756;SDS011;1386;50.862;6.494;2024-01-15T05:39:25;19.75;;;13.95;;
2756;SDS011;1386;50.862;6.494;2024-01-15T05:41:52;23.23;;;14.65;;
2756;SDS011;1386;50.862;6.494;2024-01-15T05:44:19;25.13;;;15.07;;
2756;SDS011;1386;50.862;6.494;2024-01-15T05:46:46;21.83;;;14.70;;
2756;SDS011;1386;50.862;6.494;2024-01-15T05:49:14;22.58;;;15.73;;
2756;SDS011;1386;50.862;6.494;2024-01-15T05:51:40;25.45;;;13.15;;
2756;SDS011;1386;50.862;6.494;2024-01-15T05:54:07;25.10;;;13.98;;
2756;SDS011;1386;50.862;6.494;2024-01-15T05:56:34;18.98;;;15.05;;
2756;SDS011;1386;50.862;6.494;2024-01-15T05:59:01;24.23;;;15.05;;
2756;SDS011;1386;50.862;6.494;2024-01-15T06:01:28;23.38;;;14.27;;
2756;SDS011;1386;50.862;6.494;2024-01-15T06:03:55;22.83;;;15.45;;
2756;SDS011;1386;50.862;6.494;2024-01-15T06:06:23;23.02;;;15.38;;
2756;SDS011;1386;50.862;6.494;2024-01-15T06:08:50;25.27;;;15.10;;
2756;SDS011;1386;50.862;6.494;2024-01-15T06:11:16;23.02;;;14.85;;
2756;SDS011;1386;50.862;6.494;2024-01-15T06:13:43;23.25;;;16.58;;
2756;SDS011;1386;50.862;6.494;2024-01-15T06:16:14;34.83;;;16.33;;
2756;SDS011;1386;50.862;6.494;2024-01-15T06:18:41;25.45;;;15.00;;
2756;SDS011;1386;50.862;6.494;2024-01-15T06:21:08;19.40;;;13.70;;
2756;SDS011;1386;50.862;6.494;2024-01-15T06:23:37;26.60;;;14.68;;
2756;SDS011;1386;50.862;6.494;2024-01-15T06:26:04;20.90;;;13.27;;
2756;SDS011;1386;50.862;6.494;2024-01-15T06:28:31;19.35;;;13.80;;
2756;SDS011;1386;50.862;6.494;2024-01-15T06:30:58;19.90;;;13.65;;
2756;SDS011;1386;50.862;6.494;2024-01-15T06:33:24;20.30;;;13.50;;
2756;SDS011;1386;50.862;6.494;2024-01-15T06:35:51;19.77;;;13.82;;
2756;SDS011;1386;50.862;6.494;2024-01-15T06:38:18;24.48;;;13.98;;
2756;SDS011;1386;50.862;6.494;2024-01-15T06:40:46;17.20;;;12.45;;
2756;SDS011;1386;50.862;6.494;2024-01-15T06:43:13;16.35;;;13.65;;
2756;SDS011;1386;50.862;6.494;2024-01-15T06:45:41;20.08;;;13.00;;
2756;SDS011;1386;50.862;6.494;2024-01-15T06:48:07;15.55;;;12.93;;
2756;SDS011;1386;50.862;6.494;2024-01-15T06:50:34;19.10;;;13.52;;
2756;SDS011;1386;50.862;6.494;2024-01-15T06:53:01;22.77;;;15.23;;
2756;SDS011;1386;50.862;6.494;2024-01-15T06:55:28;21.15;;;13.68;;
2756;SDS011;1386;50.862;6.494;2024-01-15T06:57:56;21.27;;;13.93;;
2756;SDS011;1386;50.862;6.494;2024-01-15T07:00:23;20.95;;;13.88;;
2756;SDS011;1386;50.862;6.494;2024-01-15T07:02:50;21.63;;;14.57;;
2756;SDS011;1386;50.862;6.494;2024-01-15T07:05:17;22.85;;;15.00;;
2756;SDS011;1386;50.862;6.494;2024-01-15T07:07:44;30.65;;;16.88;;
2756;SDS011;1386;50.862;6.494;2024-01-15T07:10:11;29.05;;;16.67;;
2756;SDS011;1386;50.862;6.494;2024-01-15T07:12:38;21.63;;;16.45;;
2756;SDS011;1386;50.862;6.494;2024-01-15T07:15:06;24.80;;;18.15;;
2756;SDS011;1386;50.862;6.494;2024-01-15T07:17:33;27.00;;;16.02;;
2756;SDS011;1386;50.862;6.494;2024-01-15T07:20:00;28.15;;;17.75;;
2756;SDS011;1386;50.862;6.494;2024-01-15T07:22:27;26.40;;;16.25;;
2756;SDS011;1386;50.862;6.494;2024-01-15T07:24:54;22.42;;;15.85;;
2756;SDS011;1386;50.862;6.494;2024-01-15T07:27:21;26.48;;;18.35;;
2756;SDS011;1386;50.862;6.494;2024-01-15T07:29:48;25.65;;;17.05;;
2756;SDS011;1386;50.862;6.494;2024-01-15T07:32:16;25.98;;;18.63;;
2756;SDS011;1386;50.862;6.494;2024-01-15T07:34:43;33.83;;;18.23;;
2756;SDS011;1386;50.862;6.494;2024-01-15T07:37:10;28.10;;;17.70;;
2756;SDS011;1386;50.862;6.494;2024-01-15T07:39:37;25.25;;;16.15;;
2756;SDS011;1386;50.862;6.494;2024-01-15T07:42:04;28.02;;;17.38;;
2756;SDS011;1386;50.862;6.494;2024-01-15T07:44:32;30.88;;;17.05;;
2756;SDS011;1386;50.862;6.494;2024-01-15T07:46:59;24.25;;;17.25;;
2756;SDS011;1386;50.862;6.494;2024-01-15T07:49:27;29.25;;;17.65;;
2756;SDS011;1386;50.862;6.494;2024-01-15T07:51:54;25.92;;;17.25;;
2756;SDS011;1386;50.862;6.494;2024-01-15T07:54:21;27.55;;;18.25;;
2756;SDS011;1386;50.862;6.494;2024-01-15T07:56:54;25.83;;;17.15;;
2756;SDS011;1386;50.862;6.494;2024-01-15T07:59:22;24.33;;;17.65;;
2756;SDS011;1386;50.862;6.494;2024-01-15T08:01:49;36.45;;;18.08;;
2756;SDS011;1386;50.862;6.494;2024-01-15T08:04:16;25.73;;;17.08;;
2756;SDS011;1386;50.862;6.494;2024-01-15T08:06:44;21.42;;;15.63;;
2756;SDS011;1386;50.862;6.494;2024-01-15T08:09:11;23.92;;;15.55;;
2756;SDS011;1386;50.862;6.494;2024-01-15T08:11:39;22.70;;;13.93;;
2756;SDS011;1386;50.862;6.494;2024-01-15T08:14:06;18.98;;;13.45;;
2756;SDS011;1386;50.862;6.494;2024-01-15T08:16:34;20.00;;;11.95;;
2756;SDS011;1386;50.862;6.494;2024-01-15T08:19:01;14.25;;;11.68;;
2756;SDS011;1386;50.862;6.494;2024-01-15T08:21:28;19.30;;;11.95;;
2756;SDS011;1386;50.862;6.494;2024-01-15T08:23:58;16.20;;;11.43;;
2756;SDS011;1386;50.862;6.494;2024-01-15T08:26:26;15.38;;;10.50;;
2756;SDS011;1386;50.862;6.494;2024-01-15T08:28:53;17.67;;;11.80;;
2756;SDS011;1386;50.862;6.494;2024-01-15T08:31:20;20.15;;;11.93;;
2756;SDS011;1386;50.862;6.494;2024-01-15T08:33:46;16.92;;;11.43;;
2756;SDS011;1386;50.862;6.494;2024-01-15T08:36:13;13.02;;;10.35;;
2756;SDS011;1386;50.862;6.494;2024-01-15T08:38:40;10.77;;;8.38;;
2756;SDS011;1386;50.862;6.494;2024-01-15T08:41:08;13.10;;;8.95;;
2756;SDS011;1386;50.862;6.494;2024-01-15T08:43:35;15.65;;;10.10;;
2756;SDS011;1386;50.862;6.494;2024-01-15T08:46:05;11.60;;;9.05;;
2756;SDS011;1386;50.862;6.494;2024-01-15T08:48:40;11.68;;;9.35;;
2756;SDS011;1386;50.862;6.494;2024-01-15T08:51:07;12.93;;;9.95;;
2756;SDS011;1386;50.862;6.494;2024-01-15T08:53:36;12.50;;;10.20;;
2756;SDS011;1386;50.862;6.494;2024-01-15T08:56:04;12.25;;;9.15;;
2756;SDS011;1386;50.862;6.494;2024-01-15T08:58:34;13.38;;;8.85;;
2756;SDS011;1386;50.862;6.494;2024-01-15T09:01:02;12.70;;;9.63;;
2756;SDS011;1386;50.862;6.494;2024-01-15T09:03:30;13.80;;;9.02;;
2756;SDS011;1386;50.862;6.494;2024-01-15T09:06:08;10.82;;;8.65;;
2756;SDS011;1386;50.862;6.494;2024-01-15T09:08:42;14.60;;;9.75;;
2756;SDS011;1386;50.862;6.494;2024-01-15T09:11:12;15.70;;;9.80;;
2756;SDS011;1386;50.862;6.494;2024-01-15T09:13:46;9.00;;;8.05;;
2756;SDS011;1386;50.862;6.494;2024-01-15T09:16:34;11.30;;;8.88;;
2756;SDS011;1386;50.862;6.494;2024-01-15T09:19:27;13.63;;;9.68;;
2756;SDS011;1386;50.862;6.494;2024-01-15T09:22:07;11.15;;;9.43;;
2756;SDS011;1386;50.862;6.494;2024-01-15T09:24:48;9.90;;;8.32;;
2756;SDS011;1386;50.862;6.494;2024-01-15T09:30:32;12.75;;;8.57;;
2756;SDS011;1386;50.862;6.494;2024-01-15T09:33:03;9.77;;;7.65;;
2756;SDS011;1386;50.862;6.494;2024-01-15T09:35:33;10.25;;;8.70;;
2756;SDS011;1386;50.862;6.494;2024-01-15T09:38:04;12.55;;;8.82;;
2756;SDS011;1386;50.862;6.494;2024-01-15T09:40:31;10.48;;;8.60;;
2756;SDS011;1386;50.862;6.494;2024-01-15T09:42:59;12.93;;;9.18;;
2756;SDS011;1386;50.862;6.494;2024-01-15T09:45:27;10.75;;;9.00;;
2756;SDS011;1386;50.862;6.494;2024-01-15T09:47:55;12.75;;;9.00;;
2756;SDS011;1386;50.862;6.494;2024-01-15T09:50:22;12.63;;;8.70;;
2756;SDS011;1386;50.862;6.494;2024-01-15T09:52:49;12.25;;;8.77;;
2756;SDS011;1386;50.862;6.494;2024-01-15T09:55:17;14.48;;;9.10;;
2756;SDS011;1386;50.862;6.494;2024-01-15T09:57:44;10.98;;;8.52;;
2756;SDS011;1386;50.862;6.494;2024-01-15T10:00:12;12.10;;;8.43;;
2756;SDS011;1386;50.862;6.494;2024-01-15T10:02:42;10.65;;;9.00;;
2756;SDS011;1386;50.862;6.494;2024-01-15T10:05:09;10.38;;;8.50;;
2756;SDS011;1386;50.862;6.494;2024-01-15T10:07:36;10.35;;;8.70;;
2756;SDS011;1386;50.862;6.494;2024-01-15T10:10:05;11.10;;;8.95;;
2756;SDS011;1386;50.862;6.494;2024-01-15T10:12:32;11.15;;;7.53;;
2756;SDS011;1386;50.862;6.494;2024-01-15T10:15:03;10.55;;;8.70;;
2756;SDS011;1386;50.862;6.494;2024-01-15T10:17:32;8.68;;;7.72;;
2756;SDS011;1386;50.862;6.494;2024-01-15T10:20:00;10.18;;;9.02;;
2756;SDS011;1386;50.862;6.494;2024-01-15T10:22:30;8.60;;;7.88;;
2756;SDS011;1386;50.862;6.494;2024-01-15T10:24:57;9.98;;;8.30;;
2756;SDS011;1386;50.862;6.494;2024-01-15T10:27:24;10.25;;;7.90;;
2756;SDS011;1386;50.862;6.494;2024-01-15T10:29:51;8.15;;;7.45;;
2756;SDS011;1386;50.862;6.494;2024-01-15T10:32:19;9.30;;;8.38;;
2756;SDS011;1386;50.862;6.494;2024-01-15T10:34:49;8.85;;;7.22;;
2756;SDS011;1386;50.862;6.494;2024-01-15T10:37:20;8.70;;;7.90;;
2756;SDS011;1386;50.862;6.494;2024-01-15T10:39:49;11.13;;;8.60;;
2756;SDS011;1386;50.862;6.494;2024-01-15T10:42:16;9.05;;;8.05;;
2756;SDS011;1386;50.862;6.494;2024-01-15T10:44:45;10.68;;;8.60;;
2756;SDS011;1386;50.862;6.494;2024-01-15T10:47:14;8.85;;;8.00;;
2756;SDS011;1386;50.862;6.494;2024-01-15T10:49:42;10.43;;;9.20;;
2756;SDS011;1386;50.862;6.494;2024-01-15T10:52:11;9.30;;;8.13;;
2756;SDS011;1386;50.862;6.494;2024-01-15T10:54:40;10.63;;;8.45;;
2756;SDS011;1386;50.862;6.494;2024-01-15T10:57:09;15.93;;;8.93;;
2756;SDS011;1386;50.862;6.494;2024-01-15T10:59:36;8.45;;;7.55;;
2756;SDS011;1386;50.862;6.494;2024-01-15T11:02:03;8.82;;;7.95;;
2756;SDS011;1386;50.862;6.494;2024-01-15T11:04:33;9.35;;;7.80;;
2756;SDS011;1386;50.862;6.494;2024-01-15T11:07:01;14.20;;;9.15;;
2756;SDS011;1386;50.862;6.494;2024-01-15T11:09:29;9.43;;;8.43;;
2756;SDS011;1386;50.862;6.494;2024-01-15T11:12:07;9.55;;;8.65;;
2756;SDS011;1386;50.862;6.494;2024-01-15T11:14:38;9.48;;;7.93;;
2756;SDS011;1386;50.862;6.494;2024-01-15T11:17:10;15.68;;;9.15;;
2756;SDS011;1386;50.862;6.494;2024-01-15T11:19:38;13.73;;;8.90;;
2756;SDS011;1386;50.862;6.494;2024-01-15T11:22:08;10.00;;;8.93;;
2756;SDS011;1386;50.862;6.494;2024-01-15T11:24:37;10.35;;;9.15;;
2756;SDS011;1386;50.862;6.494;2024-01-15T11:27:04;11.93;;;8.80;;
2756;SDS011;1386;50.862;6.494;2024-01-15T11:29:34;12.25;;;9.10;;
2756;SDS011;1386;50.862;6.494;2024-01-15T11:32:03;19.38;;;8.25;;
2756;SDS011;1386;50.862;6.494;2024-01-15T11:43:10;12.23;;;8.07;;
2756;SDS011;1386;50.862;6.494;2024-01-15T11:45:40;14.23;;;8.40;;
2756;SDS011;1386;50.862;6.494;2024-01-15T11:48:11;11.05;;;7.45;;
2756;SDS011;1386;50.862;6.494;2024-01-15T11:50:41;9.25;;;7.00;;
2756;SDS011;1386;50.862;6.494;2024-01-15T11:53:13;10.65;;;6.85;;
2756;SDS011;1386;50.862;6.494;2024-01-15T11:55:51;8.27;;;6.90;;
2756;SDS011;1386;50.862;6.494;2024-01-15T11:58:33;10.68;;;7.63;;
2756;SDS011;1386;50.862;6.494;2024-01-15T12:01:05;9.07;;;6.55;;
2756;SDS011;1386;50.862;6.494;2024-01-15T12:03:33;8.35;;;6.70;;
2756;SDS011;1386;50.862;6.494;2024-01-15T12:06:00;10.50;;;6.32;;
2756;SDS011;1386;50.862;6.494;2024-01-15T12:08:32;9.77;;;6.30;;
2756;SDS011;1386;50.862;6.494;2024-01-15T12:11:00;12.90;;;7.43;;
2756;SDS011;1386;50.862;6.494;2024-01-15T12:13:36;8.25;;;6.32;;
2756;SDS011;1386;50.862;6.494;2024-01-15T12:16:03;8.05;;;6.50;;
2756;SDS011;1386;50.862;6.494;2024-01-15T12:18:30;8.02;;;7.15;;
2756;SDS011;1386;50.862;6.494;2024-01-15T12:20:57;6.30;;;5.78;;
2756;SDS011;1386;50.862;6.494;2024-01-15T12:23:25;8.70;;;6.18;;
2756;SDS011;1386;50.862;6.494;2024-01-15T12:25:53;7.13;;;6.47;;
2756;SDS011;1386;50.862;6.494;2024-01-15T12:28:20;8.32;;;5.75;;
2756;SDS011;1386;50.862;6.494;2024-01-15T12:30:49;8.77;;;6.30;;
2756;SDS011;1386;50.862;6.494;2024-01-15T12:33:17;7.70;;;5.93;;
2756;SDS011;1386;50.862;6.494;2024-01-15T12:35:45;10.02;;;5.65;;
2756;SDS011;1386;50.862;6.494;2024-01-15T12:38:12;14.93;;;7.25;;
2756;SDS011;1386;50.862;6.494;2024-01-15T12:40:39;6.03;;;5.40;;
2756;SDS011;1386;50.862;6.494;2024-01-15T12:43:11;8.27;;;6.25;;
2756;SDS011;1386;50.862;6.494;2024-01-15T12:45:38;11.43;;;5.97;;
2756;SDS011;1386;50.862;6.494;2024-01-15T12:48:08;10.05;;;6.65;;
2756;SDS011;1386;50.862;6.494;2024-01-15T12:50:35;6.28;;;5.40;;
2756;SDS011;1386;50.862;6.494;2024-01-15T12:53:02;8.25;;;5.38;;
2756;SDS011;1386;50.862;6.494;2024-01-15T12:55:29;6.20;;;5.28;;
2756;SDS011;1386;50.862;6.494;2024-01-15T12:57:56;8.40;;;6.05;;
2756;SDS011;1386;50.862;6.494;2024-01-15T13:00:23;6.00;;;5.40;;
2756;SDS011;1386;50.862;6.494;2024-01-15T13:02:51;8.90;;;5.72;;
2756;SDS011;1386;50.862;6.494;2024-01-15T13:05:19;8.23;;;6.20;;
2756;SDS011;1386;50.862;6.494;2024-01-15T13:07:49;6.72;;;5.95;;
2756;SDS011;1386;50.862;6.494;2024-01-15T13:10:16;8.02;;;6.03;;
2756;SDS011;1386;50.862;6.494;2024-01-15T13:12:42;7.28;;;5.72;;
2756;SDS011;1386;50.862;6.494;2024-01-15T13:15:11;9.95;;;5.70;;
2756;SDS011;1386;50.862;6.494;2024-01-15T13:17:38;8.68;;;6.35;;
2756;SDS011;1386;50.862;6.494;2024-01-15T13:20:06;12.10;;;6.15;;
2756;SDS011;1386;50.862;6.494;2024-01-15T13:22:37;7.80;;;5.75;;
2756;SDS011;1386;50.862;6.494;2024-01-15T13:25:05;6.10;;;5.10;;
2756;SDS011;1386;50.862;6.494;2024-01-15T13:27:34;6.72;;;5.40;;
2756;SDS011;1386;50.862;6.494;2024-01-15T13:30:01;6.07;;;5.47;;
2756;SDS011;1386;50.862;6.494;2024-01-15T13:32:28;7.38;;;5.45;;
2756;SDS011;1386;50.862;6.494;2024-01-15T13:34:55;7.05;;;5.30;;
2756;SDS011;1386;50.862;6.494;2024-01-15T13:37:22;5.40;;;4.68;;
2756;SDS011;1386;50.862;6.494;2024-01-15T13:39:51;6.75;;;4.82;;
2756;SDS011;1386;50.862;6.494;2024-01-15T13:42:18;6.90;;;4.43;;
2756;SDS011;1386;50.862;6.494;2024-01-15T13:44:47;4.75;;;4.45;;
2756;SDS011;1386;50.862;6.494;2024-01-15T13:47:13;4.45;;;4.15;;
2756;SDS011;1386;50.862;6.494;2024-01-15T13:49:40;4.28;;;3.80;;
2756;SDS011;1386;50.862;6.494;2024-01-15T13:52:07;4.20;;;3.80;;
2756;SDS011;1386;50.862;6.494;2024-01-15T13:54:34;5.20;;;4.70;;
2756;SDS011;1386;50.862;6.494;2024-01-15T13:57:03;4.88;;;3.53;;
2756;SDS011;1386;50.862;6.494;2024-01-15T13:59:32;4.13;;;3.83;;
2756;SDS011;1386;50.862;6.494;2024-01-15T14:01:59;4.38;;;3.97;;
2756;SDS011;1386;50.862;6.494;2024-01-15T14:04:26;4.45;;;4.05;;
2756;SDS011;1386;50.862;6.494;2024-01-15T14:06:53;4.03;;;3.72;;
2756;SDS011;1386;50.862;6.494;2024-01-15T14:09:20;4.07;;;3.63;;
2756;SDS011;1386;50.862;6.494;2024-01-15T14:11:47;4.30;;;3.90;;
2756;SDS011;1386;50.862;6.494;2024-01-15T14:14:15;6.00;;;3.97;;
2756;SDS011;1386;50.862;6.494;2024-01-15T14:16:42;4.82;;;4.32;;
2756;SDS011;1386;50.862;6.494;2024-01-15T14:19:09;5.97;;;3.92;;
2756;SDS011;1386;50.862;6.494;2024-01-15T14:21:36;4.38;;;3.90;;
2756;SDS011;1386;50.862;6.494;2024-01-15T14:24:03;4.10;;;3.70;;
2756;SDS011;1386;50.862;6.494;2024-01-15T14:26:30;4.80;;;4.28;;
2756;SDS011;1386;50.862;6.494;2024-01-15T14:28:58;4.15;;;3.85;;
2756;SDS011;1386;50.862;6.494;2024-01-15T14:31:26;3.90;;;3.60;;
2756;SDS011;1386;50.862;6.494;2024-01-15T14:33:53;4.78;;;4.35;;
2756;SDS011;1386;50.862;6.494;2024-01-15T14:36:21;4.75;;;4.35;;
2756;SDS011;1386;50.862;6.494;2024-01-15T14:38:48;4.60;;;4.30;;
2756;SDS011;1386;50.862;6.494;2024-01-15T14:41:15;5.05;;;4.65;;
2756;SDS011;1386;50.862;6.494;2024-01-15T14:43:42;5.40;;;4.90;;
2756;SDS011;1386;50.862;6.494;2024-01-15T14:46:10;5.97;;;4.93;;
2756;SDS011;1386;50.862;6.494;2024-01-15T14:48:38;5.03;;;4.65;;
2756;SDS011;1386;50.862;6.494;2024-01-15T14:51:05;4.78;;;4.47;;
2756;SDS011;1386;50.862;6.494;2024-01-15T14:53:32;5.80;;;5.25;;
2756;SDS011;1386;50.862;6.494;2024-01-15T14:56:00;4.78;;;4.38;;
2756;SDS011;1386;50.862;6.494;2024-01-15T14:58:27;4.68;;;4.13;;
2756;SDS011;1386;50.862;6.494;2024-01-15T15:00:54;4.47;;;4.07;;
2756;SDS011;1386;50.862;6.494;2024-01-15T15:03:21;4.85;;;4.28;;
2756;SDS011;1386;50.862;6.494;2024-01-15T15:05:50;4.72;;;4.43;;
2756;SDS011;1386;50.862;6.494;2024-01-15T15:08:17;6.03;;;4.55;;
2756;SDS011;1386;50.862;6.494;2024-01-15T15:10:44;4.60;;;4.30;;
2756;SDS011;1386;50.862;6.494;2024-01-15T15:13:10;4.43;;;4.03;;